createdAt,value
2022-09-17T00:01:06.801Z,24.50
2022-09-17T00:04:10.491Z,24.40
2022-09-17T00:07:12.759Z,24.40
2022-09-17T00:10:15.005Z,24.40
2022-09-17T00:13:17.176Z,24.40
2022-09-17T00:16:25.779Z,24.40
2022-09-17T00:19:27.990Z,24.40
2022-09-17T00:22:30.058Z,24.40
2022-09-17T00:25:32.214Z,24.40
2022-09-17T00:28:34.358Z,24.30
2022-09-17T00:31:37.905Z,24.30
2022-09-17T00:34:40.098Z,24.30
2022-09-17T00:37:42.238Z,24.30
2022-09-17T00:40:44.565Z,24.30
2022-09-17T00:43:53.127Z,24.30
2022-09-17T00:46:55.439Z,24.30
2022-09-17T00:50:08.364Z,24.30
2022-09-17T00:53:14.822Z,24.30
2022-09-17T00:56:43.852Z,24.30
2022-09-17T00:59:46.017Z,24.30
2022-09-17T01:02:48.813Z,24.20
2022-09-17T01:06:21.101Z,24.20
2022-09-17T01:10:12.665Z,24.20
2022-09-17T01:13:32.586Z,24.20
2022-09-17T01:17:00.784Z,24.20
2022-09-17T01:20:28.384Z,24.20
2022-09-17T01:23:55.356Z,24.20
2022-09-17T01:27:15.668Z,24.20
2022-09-17T01:30:55.277Z,24.20
2022-09-17T01:34:22.368Z,24.10
2022-09-17T01:38:13.889Z,24.10
2022-09-17T01:41:31.094Z,24.10
2022-09-17T01:44:40.080Z,24.10
2022-09-17T01:47:53.172Z,24.10
2022-09-17T01:51:06.112Z,24.10
2022-09-17T01:54:16.869Z,24.10
2022-09-17T01:57:36.938Z,24.00
2022-09-17T02:00:42.667Z,24.10
2022-09-17T02:03:49.558Z,24.00
2022-09-17T02:06:56.608Z,24.00
2022-09-17T02:10:02.324Z,24.00
2022-09-17T02:13:28.281Z,24.00
2022-09-17T02:16:35.916Z,24.00
2022-09-17T02:19:40.625Z,24.00
2022-09-17T02:22:58.002Z,24.00
2022-09-17T02:26:10.118Z,24.00
2022-09-17T02:29:29.946Z,23.90
2022-09-17T02:32:32.186Z,23.90
2022-09-17T02:35:34.428Z,23.90
2022-09-17T02:38:38.377Z,23.90
2022-09-17T02:42:05.928Z,23.90
2022-09-17T02:45:19.874Z,23.90
2022-09-17T02:48:39.949Z,23.90
2022-09-17T02:51:56.220Z,23.90
2022-09-17T02:55:18.860Z,23.90
2022-09-17T02:58:28.804Z,23.90
2022-09-17T03:01:43.391Z,23.80
2022-09-17T03:04:49.021Z,23.80
2022-09-17T03:07:51.635Z,23.80
2022-09-17T03:10:53.789Z,23.80
2022-09-17T03:13:55.915Z,23.80
2022-09-17T03:16:58.003Z,23.80
2022-09-17T03:20:00.174Z,23.80
2022-09-17T03:23:02.294Z,23.80
2022-09-17T03:26:04.409Z,23.80
2022-09-17T03:29:06.495Z,23.70
2022-09-17T03:32:08.745Z,23.70
2022-09-17T03:35:10.826Z,23.70
2022-09-17T03:38:13.480Z,23.70
2022-09-17T03:41:15.609Z,23.70
2022-09-17T03:44:19.502Z,23.70
2022-09-17T03:47:21.684Z,23.70
2022-09-17T03:50:24.080Z,23.70
2022-09-17T03:53:26.248Z,23.70
2022-09-17T03:56:28.353Z,23.60
2022-09-17T03:59:31.084Z,23.60
2022-09-17T04:02:33.260Z,23.60
2022-09-17T04:05:35.502Z,23.60
2022-09-17T04:08:37.601Z,23.60
2022-09-17T04:11:39.749Z,23.60
2022-09-17T04:14:41.931Z,23.60
2022-09-17T04:17:44.274Z,23.60
2022-09-17T04:20:46.448Z,23.60
2022-09-17T04:23:48.620Z,23.60
2022-09-17T04:26:50.766Z,23.60
2022-09-17T04:29:53.013Z,23.60
2022-09-17T04:32:55.233Z,23.50
2022-09-17T04:35:57.388Z,23.50
2022-09-17T04:38:59.870Z,23.50
2022-09-17T04:42:02.135Z,23.50
2022-09-17T04:45:04.597Z,23.50
2022-09-17T04:48:06.808Z,23.50
2022-09-17T04:51:09.169Z,23.50
2022-09-17T04:54:14.778Z,23.50
2022-09-17T04:57:16.937Z,23.40
2022-09-17T05:00:20.837Z,23.50
2022-09-17T05:03:23.016Z,23.40
2022-09-17T05:06:25.174Z,23.40
2022-09-17T05:09:27.278Z,23.40
2022-09-17T05:12:34.235Z,23.40
2022-09-17T05:15:36.674Z,23.40
2022-09-17T05:18:38.844Z,23.40
2022-09-17T05:21:41.009Z,23.40
2022-09-17T05:24:43.130Z,23.40
2022-09-17T05:27:45.750Z,23.30
2022-09-17T05:30:47.847Z,23.30
2022-09-17T05:33:49.947Z,23.40
2022-09-17T05:36:52.164Z,23.30
2022-09-17T05:39:54.330Z,23.30
2022-09-17T05:43:01.189Z,23.30
2022-09-17T05:46:05.901Z,23.30
2022-09-17T05:49:08.106Z,23.30
2022-09-17T05:52:14.056Z,23.30
2022-09-17T05:55:40.608Z,23.30
2022-09-17T05:58:44.845Z,23.30
2022-09-17T06:01:51.018Z,23.20
2022-09-17T06:04:55.452Z,23.30
2022-09-17T06:08:02.481Z,23.20
2022-09-17T06:11:09.422Z,23.20
2022-09-17T06:14:17.360Z,23.20
2022-09-17T06:17:26.750Z,23.20
2022-09-17T06:20:43.938Z,23.20
2022-09-17T06:23:47.306Z,23.20
2022-09-17T06:26:57.399Z,23.20
2022-09-17T06:30:12.468Z,23.20
2022-09-17T06:33:15.416Z,23.20
2022-09-17T06:36:19.663Z,23.20
2022-09-17T06:39:34.353Z,23.10
2022-09-17T06:42:44.587Z,23.10
2022-09-17T06:45:59.871Z,23.00
2022-09-17T06:49:02.101Z,22.90
2022-09-17T06:52:04.624Z,22.80
2022-09-17T06:55:07.094Z,22.70
2022-09-17T06:58:09.312Z,22.70
2022-09-17T07:01:13.148Z,22.60
2022-09-17T07:04:17.651Z,22.50
2022-09-17T07:07:19.778Z,22.40
2022-09-17T07:10:23.684Z,22.30
2022-09-17T07:13:26.086Z,22.30
2022-09-17T07:16:28.311Z,22.20
2022-09-17T07:19:33.590Z,22.20
2022-09-17T07:22:36.387Z,22.10
2022-09-17T07:25:38.598Z,22.10
2022-09-17T07:28:41.429Z,22.00
2022-09-17T07:31:43.932Z,22.00
2022-09-17T07:34:46.236Z,21.90
2022-09-17T07:37:48.398Z,21.90
2022-09-17T07:40:58.663Z,21.80
2022-09-17T07:47:14.803Z,21.80
2022-09-17T07:50:17.757Z,21.70
2022-09-17T07:53:20.374Z,21.70
2022-09-17T07:56:23.395Z,21.70
2022-09-17T07:59:25.617Z,21.60
2022-09-17T08:02:28.793Z,21.60
2022-09-17T08:05:32.807Z,21.60
2022-09-17T08:08:36.214Z,21.60
2022-09-17T08:11:55.009Z,21.60
2022-09-17T08:14:58.037Z,21.50
2022-09-17T08:18:00.334Z,21.50
2022-09-17T08:21:05.133Z,21.50
2022-09-17T08:24:07.462Z,21.60
2022-09-17T08:27:09.621Z,21.70
2022-09-17T08:30:12.000Z,21.80
2022-09-17T08:33:14.403Z,21.90
2022-09-17T08:36:18.890Z,22.00
2022-09-17T08:39:21.253Z,22.00
2022-09-17T08:42:56.673Z,22.10
2022-09-17T08:45:59.889Z,22.10
2022-09-17T08:49:16.411Z,22.20
2022-09-17T08:52:30.796Z,22.20
2022-09-17T08:55:54.193Z,22.20
2022-09-17T08:59:16.496Z,22.20
2022-09-17T09:02:31.344Z,22.30
2022-09-17T09:05:52.759Z,22.30
2022-09-17T09:09:04.101Z,22.30
2022-09-17T09:12:13.280Z,22.30
2022-09-17T09:15:47.574Z,22.30
2022-09-17T09:18:55.103Z,22.30
2022-09-17T09:22:09.883Z,22.30
2022-09-17T09:25:29.444Z,22.30
2022-09-17T09:29:03.577Z,22.30
2022-09-17T09:32:30.899Z,22.30
2022-09-17T09:35:39.628Z,22.30
2022-09-17T09:38:50.207Z,22.30
2022-09-17T09:42:19.295Z,22.30
2022-09-17T09:45:58.722Z,22.30
2022-09-17T09:49:16.112Z,22.30
2022-09-17T09:52:24.335Z,22.30
2022-09-17T09:55:45.272Z,22.20
2022-09-17T09:58:47.654Z,22.30
2022-09-17T10:01:49.980Z,22.30
2022-09-17T10:04:53.573Z,22.30
2022-09-17T10:07:56.942Z,22.30
2022-09-17T10:11:01.207Z,22.30
2022-09-17T10:14:25.689Z,22.30
2022-09-17T10:17:29.271Z,22.20
2022-09-17T10:20:31.455Z,22.30
2022-09-17T10:23:38.677Z,22.30
2022-09-17T10:26:40.936Z,22.20
2022-09-17T10:29:46.206Z,22.20
2022-09-17T10:33:18.617Z,22.20
2022-09-17T10:36:42.957Z,22.20
2022-09-17T10:39:48.717Z,22.20
2022-09-17T10:43:10.364Z,22.20
2022-09-17T10:46:28.031Z,22.20
2022-09-17T10:49:42.127Z,22.20
2022-09-17T10:53:15.775Z,22.20
2022-09-17T10:56:27.427Z,22.20
2022-09-17T10:59:43.240Z,22.20
2022-09-17T11:02:54.466Z,22.20
2022-09-17T11:06:34.053Z,22.20
2022-09-17T11:09:48.579Z,22.20
2022-09-17T11:13:15.719Z,22.20
2022-09-17T11:16:20.775Z,22.10
2022-09-17T11:19:45.584Z,22.10
2022-09-17T11:23:11.315Z,22.10
2022-09-17T11:26:28.535Z,22.10
2022-09-17T11:30:13.893Z,22.10
2022-09-17T11:33:43.979Z,22.10
2022-09-17T11:36:56.629Z,22.10
2022-09-17T11:40:05.031Z,22.10
2022-09-17T11:43:37.993Z,22.10
2022-09-17T11:46:51.702Z,22.10
2022-09-17T11:50:03.900Z,22.10
2022-09-17T11:53:09.180Z,22.10
2022-09-17T11:56:11.359Z,22.10
2022-09-17T11:59:30.292Z,22.10
2022-09-17T12:02:57.682Z,22.10
2022-09-17T12:06:15.040Z,22.10
2022-09-17T12:09:26.054Z,22.00
2022-09-17T12:12:49.248Z,22.00
2022-09-17T12:16:02.589Z,22.00
2022-09-17T12:19:21.080Z,22.00
2022-09-17T12:22:38.085Z,22.00
2022-09-17T12:26:11.919Z,22.00
2022-09-17T12:29:31.995Z,22.00
2022-09-17T12:32:36.927Z,22.00
2022-09-17T12:36:07.074Z,22.00
2022-09-17T12:39:24.433Z,22.00
2022-09-17T12:42:36.597Z,22.00
2022-09-17T12:46:01.814Z,22.00
2022-09-17T12:49:49.191Z,22.00
2022-09-17T12:53:03.417Z,22.00
2022-09-17T12:56:15.924Z,22.00
2022-09-17T12:59:20.784Z,22.00
2022-09-17T13:02:26.429Z,22.00
2022-09-17T13:05:49.647Z,22.00
2022-09-17T13:09:12.730Z,22.00
2022-09-17T13:12:20.346Z,22.00
2022-09-17T13:15:34.442Z,22.00
2022-09-17T13:19:22.904Z,22.00
2022-09-17T13:22:30.391Z,21.90
2022-09-17T13:25:32.672Z,21.90
2022-09-17T13:28:44.616Z,21.90
2022-09-17T13:31:50.185Z,22.00
2022-09-17T13:34:52.480Z,21.90
2022-09-17T13:38:00.472Z,21.90
2022-09-17T13:41:21.427Z,21.90
2022-09-17T13:44:24.153Z,21.90
2022-09-17T13:47:32.991Z,21.90
2022-09-17T13:50:43.898Z,21.90
2022-09-17T13:53:54.873Z,21.90
2022-09-17T13:57:14.793Z,21.90
2022-09-17T14:00:36.090Z,21.90
2022-09-17T14:03:42.021Z,21.90
2022-09-17T14:06:50.445Z,21.90
2022-09-17T14:09:55.814Z,21.90
2022-09-17T14:13:20.534Z,21.90
2022-09-17T14:16:37.729Z,21.90
2022-09-17T14:19:51.018Z,21.90
2022-09-17T14:23:01.695Z,21.90
2022-09-17T14:26:08.379Z,21.90
2022-09-17T14:29:29.363Z,21.90
2022-09-17T14:32:42.344Z,21.90
2022-09-17T14:35:50.744Z,21.90
2022-09-17T14:38:56.299Z,21.90
2022-09-17T14:41:59.006Z,21.90
2022-09-17T14:45:04.984Z,21.90
2022-09-17T14:48:20.775Z,21.90
2022-09-17T14:51:26.804Z,21.90
2022-09-17T14:54:36.355Z,21.90
2022-09-17T14:57:39.117Z,21.90
2022-09-17T15:00:52.233Z,21.90
2022-09-17T15:04:12.839Z,21.90
2022-09-17T15:07:15.042Z,21.90
2022-09-17T15:10:20.370Z,21.80
2022-09-17T15:13:38.522Z,21.90
2022-09-17T15:16:49.144Z,21.90
2022-09-17T15:19:58.825Z,21.90
2022-09-17T15:23:25.743Z,21.80
2022-09-17T15:26:37.456Z,21.90
2022-09-17T15:29:45.606Z,21.80
2022-09-17T15:32:59.631Z,21.80
2022-09-17T15:36:23.676Z,21.80
2022-09-17T15:39:31.225Z,21.80
2022-09-17T15:42:33.339Z,21.80
2022-09-17T15:45:39.067Z,21.80
2022-09-17T15:48:41.610Z,21.80
2022-09-17T15:51:43.764Z,21.80
2022-09-17T15:54:46.243Z,21.80
2022-09-17T15:57:48.452Z,21.80
2022-09-17T16:01:14.798Z,21.80
2022-09-17T16:04:23.353Z,21.80
2022-09-17T16:07:30.493Z,21.80
2022-09-17T16:10:32.666Z,21.80
2022-09-17T16:13:34.922Z,21.80
2022-09-17T16:16:38.190Z,21.80
2022-09-17T16:19:40.432Z,21.80
2022-09-17T16:22:44.262Z,21.80
2022-09-17T16:25:46.555Z,21.80
2022-09-17T16:28:53.256Z,21.80
2022-09-17T16:31:55.684Z,21.80
2022-09-17T16:34:58.036Z,21.80
2022-09-17T16:38:00.162Z,21.80
2022-09-17T16:41:05.546Z,21.80
2022-09-17T16:47:52.147Z,21.80
2022-09-17T16:50:54.268Z,21.80
2022-09-17T16:53:57.868Z,21.80
2022-09-17T16:57:01.172Z,21.80
2022-09-17T17:00:05.977Z,21.80
2022-09-17T17:03:11.617Z,21.80
2022-09-17T17:06:17.921Z,21.70
2022-09-17T17:09:20.053Z,21.80
2022-09-17T17:12:22.168Z,21.80
2022-09-17T17:15:25.288Z,21.70
2022-09-17T17:18:27.513Z,21.80
2022-09-17T17:21:29.611Z,21.80
2022-09-17T17:24:31.901Z,21.70
2022-09-17T17:27:35.568Z,21.80
2022-09-17T17:30:38.578Z,21.70
2022-09-17T17:33:40.819Z,21.70
2022-09-17T17:36:43.099Z,21.70
2022-09-17T17:39:45.288Z,21.70
2022-09-17T17:42:52.474Z,21.70
2022-09-17T17:45:54.634Z,21.70
2022-09-17T17:48:58.093Z,21.70
2022-09-17T17:52:00.705Z,21.70
2022-09-17T17:55:02.871Z,21.70
2022-09-17T17:58:05.057Z,21.70
2022-09-17T18:01:19.569Z,21.70
2022-09-17T18:04:21.737Z,21.70
2022-09-17T18:07:23.987Z,21.70
2022-09-17T18:10:26.211Z,21.70
2022-09-17T18:13:28.385Z,21.70
2022-09-17T18:16:30.884Z,21.70
2022-09-17T18:19:33.115Z,21.70
2022-09-17T18:22:35.373Z,21.70
2022-09-17T18:25:37.495Z,21.70
2022-09-17T18:28:40.211Z,21.70
2022-09-17T18:31:42.582Z,21.70
2022-09-17T18:34:44.761Z,21.70
2022-09-17T18:37:47.256Z,21.70
2022-09-17T18:40:49.396Z,21.70
2022-09-17T18:43:51.569Z,21.70
2022-09-17T18:46:54.106Z,21.70
2022-09-17T18:49:56.313Z,21.70
2022-09-17T18:52:58.624Z,21.70
2022-09-17T18:56:05.017Z,21.70
2022-09-17T18:59:08.329Z,21.70
2022-09-17T19:02:13.907Z,21.70
2022-09-17T19:05:17.956Z,21.70
2022-09-17T19:08:23.215Z,21.70
2022-09-17T19:11:25.486Z,21.60
2022-09-17T19:14:27.723Z,21.60
2022-09-17T19:17:30.365Z,21.60
2022-09-17T19:20:37.191Z,21.60
2022-09-17T19:23:47.873Z,21.60
2022-09-17T19:26:51.037Z,21.60
2022-09-17T19:29:53.471Z,21.60
2022-09-17T19:32:55.831Z,21.60
2022-09-17T19:36:07.112Z,21.60
2022-09-17T19:39:09.515Z,21.60
2022-09-17T19:42:12.359Z,21.60
2022-09-17T19:45:14.636Z,21.60
2022-09-17T19:48:16.798Z,21.60
2022-09-17T19:51:19.695Z,21.60
2022-09-17T19:54:21.936Z,21.60
2022-09-17T19:57:24.316Z,21.60
2022-09-17T20:00:26.954Z,21.60
2022-09-17T20:03:29.709Z,21.60
2022-09-17T20:06:34.313Z,21.60
2022-09-17T20:09:36.532Z,21.60
2022-09-17T20:12:38.632Z,21.60
2022-09-17T20:15:40.760Z,21.60
2022-09-17T20:18:46.054Z,21.60
2022-09-17T20:21:48.159Z,21.60
2022-09-17T20:24:51.174Z,21.50
2022-09-17T20:27:54.043Z,21.50
2022-09-17T20:31:26.927Z,21.50
2022-09-17T20:34:29.174Z,21.50
2022-09-17T20:38:18.561Z,21.50
2022-09-17T20:40:53.490Z,21.50
2022-09-17T20:43:55.798Z,21.50
2022-09-17T20:46:58.007Z,21.50
2022-09-17T20:50:00.143Z,21.50
2022-09-17T20:53:02.401Z,21.50
2022-09-17T20:56:07.992Z,21.50
2022-09-17T20:59:21.719Z,21.50
2022-09-17T21:02:25.586Z,21.50
2022-09-17T21:05:27.698Z,21.50
2022-09-17T21:08:29.856Z,21.50
2022-09-17T21:11:32.382Z,21.50
2022-09-17T21:14:34.603Z,21.50
2022-09-17T21:17:36.833Z,21.50
2022-09-17T21:20:39.465Z,21.50
2022-09-17T21:23:42.689Z,21.40
2022-09-17T21:26:45.986Z,21.40
2022-09-17T21:29:48.110Z,21.40
2022-09-17T21:32:55.896Z,21.40
2022-09-17T21:36:04.116Z,21.40
2022-09-17T21:39:16.966Z,21.40
2022-09-17T21:42:20.067Z,21.40
2022-09-17T21:45:22.128Z,21.40
2022-09-17T21:48:24.263Z,21.40
2022-09-17T21:51:32.115Z,21.40
2022-09-17T21:54:34.228Z,21.40
2022-09-17T21:57:36.358Z,21.40
2022-09-17T22:00:38.425Z,21.40
2022-09-17T22:03:42.174Z,21.40
2022-09-17T22:06:45.203Z,21.40
2022-09-17T22:09:47.666Z,21.40
2022-09-17T22:12:49.753Z,21.40
2022-09-17T22:16:00.835Z,21.40
2022-09-17T22:19:05.010Z,21.40
2022-09-17T22:22:07.318Z,21.40
2022-09-17T22:25:09.894Z,21.30
2022-09-17T22:28:20.973Z,21.30
2022-09-17T22:31:23.984Z,21.30
2022-09-17T22:34:26.602Z,21.30
2022-09-17T22:37:29.138Z,21.30
2022-09-17T22:40:31.350Z,21.30
2022-09-17T22:43:34.224Z,21.30
2022-09-17T22:46:41.780Z,21.30
2022-09-17T22:49:43.969Z,21.30
2022-09-17T22:52:48.395Z,21.30
2022-09-17T22:55:55.294Z,21.30
2022-09-17T22:58:58.121Z,21.30
2022-09-17T23:02:00.277Z,21.30
2022-09-17T23:05:02.399Z,21.30
2022-09-17T23:08:04.637Z,21.30
2022-09-17T23:11:08.611Z,21.30
2022-09-17T23:14:13.074Z,21.30
2022-09-17T23:17:15.193Z,21.30
2022-09-17T23:20:17.283Z,21.30
2022-09-17T23:23:22.713Z,21.30
2022-09-17T23:26:27.590Z,21.30
2022-09-17T23:29:29.763Z,21.20
2022-09-17T23:32:31.913Z,21.30
2022-09-17T23:35:34.173Z,21.20
2022-09-17T23:38:36.683Z,21.20
2022-09-17T23:41:43.341Z,21.20
2022-09-17T23:44:45.706Z,21.20
2022-09-17T23:47:48.496Z,21.20
2022-09-17T23:50:50.791Z,21.20
2022-09-17T23:53:54.592Z,21.20
2022-09-17T23:56:57.617Z,21.10
2022-09-17T23:59:59.880Z,21.20
